Time;durP1;ratioP1;P1;durP2;ratioP2;P2;SDS_P1;SDS_P2;PMS_P1;PMS_P2;Temp;Humidity;BMP_temperature;BMP_pressure;BME280_temperature;BME280_humidity;BME280_pressure;Samples;Min_cycle;Max_cycle;Signal;HPM_P1;HPM_P2
2021/12/07 00:00:23;;;;;;;;;;;;;;;17.08;56.73;99954.09;143737;986;46010;-74
2021/12/07 00:02:49;;;;;;;;;;;;;;;17.11;55.24;99950.03;143735;984;47003;-74
2021/12/07 00:05:15;;;;;;;;;;;;;;;17.16;55.68;99950.09;143734;983;46013;-74
2021/12/07 00:07:43;;;;;;;;;;;;;;;17.18;55.99;99941.66;143733;980;47004;-75
2021/12/07 00:10:09;;;;;;;;;;;;;;;17.21;55.16;99938.44;143736;986;46011;-75
2021/12/07 00:12:39;;;;;;;;;;;;;;;17.18;54.94;99928.09;143736;983;47002;-74
2021/12/07 00:15:06;;;;;;;;;;;;;;;17.17;55.35;99935.44;143737;974;46012;-76
2021/12/07 00:17:32;;;;;;;;;;;;;;;17.22;54.68;99930.03;143733;980;47004;-75
2021/12/07 00:19:59;;;;;;;;;;;;;;;17.24;54.73;99929.78;143737;982;46010;-74
2021/12/07 00:22:25;;;;;;;;;;;;;;;17.23;54.78;99920.81;143733;984;47002;-75
2021/12/07 00:24:52;;;;;;;;;;;;;;;17.29;54.55;99918.97;143735;984;46013;-75
2021/12/07 00:27:18;;;;;;;;;;;;;;;17.28;55.43;99909.97;143734;979;47004;-75
2021/12/07 00:29:43;;;;;;;;;;;;;;;17.31;55.42;99913.25;143734;982;46010;-75
2021/12/07 00:32:32;;;;;;;;;;;;;;;17.34;54.21;99923.59;143736;984;47002;-75
2021/12/07 00:37:51;;;;;;;;;;;;;;;17.24;54.18;99903.44;143733;980;47004;-74
2021/12/07 00:40:18;;;;;;;;;;;;;;;17.20;55.38;99891.50;143735;986;46011;-75
2021/12/07 00:42:45;;;;;;;;;;;;;;;17.18;55.46;99890.12;143734;983;47002;-75
2021/12/07 00:45:13;;;;;;;;;;;;;;;17.16;55.81;99889.56;143734;984;46012;-75
2021/12/07 00:47:39;;;;;;;;;;;;;;;17.14;55.64;99887.13;143733;980;46938;-75
2021/12/07 00:50:07;;;;;;;;;;;;;;;17.13;55.42;99871.91;143736;986;46010;-75
2021/12/07 00:52:33;;;;;;;;;;;;;;;17.08;55.97;99866.44;143739;971;46010;-75
2021/12/07 00:55:00;;;;;;;;;;;;;;;17.07;55.80;99864.81;143733;984;46013;-75
2021/12/07 00:57:26;;;;;;;;;;;;;;;17.05;56.44;99853.41;143733;979;47004;-76
2021/12/07 00:59:52;;;;;;;;;;;;;;;17.03;56.38;99833.87;143737;986;46010;-76
2021/12/07 01:02:18;;;;;;;;;;;;;;;16.99;57.01;99825.44;143732;984;48002;-75
2021/12/07 01:04:51;;;;;;;;;;;;;;;16.92;56.84;99814.00;143732;979;47013;-75
2021/12/07 01:07:47;;;;;;;;;;;;;;;16.89;57.65;99811.81;143732;980;47004;-76
2021/12/07 01:26:27;;;;;;;;;;;;;;;16.89;55.88;99795.53;143738;983;46012;-75
2021/12/07 01:28:53;;;;;;;;;;;;;;;16.86;56.33;99805.00;143735;980;47004;-75
2021/12/07 01:31:29;;;;;;;;;;;;;;;16.86;55.41;99813.13;143737;985;46010;-76
2021/12/07 01:43:24;;;;;;;;;;;;;;;16.84;56.04;99796.34;143734;985;47004;-76
2021/12/07 01:45:57;;;;;;;;;;;;;;;16.82;56.13;99780.31;143731;984;47002;-76
2021/12/07 01:59:34;;;;;;;;;;;;;;;16.75;55.15;99776.19;143734;961;47004;-75
2021/12/07 02:02:02;;;;;;;;;;;;;;;16.73;54.92;99775.66;143734;980;47004;-75
2021/12/07 02:04:28;;;;;;;;;;;;;;;16.72;55.12;99774.84;143735;973;47010;-74
2021/12/07 02:06:54;;;;;;;;;;;;;;;16.70;55.81;99768.88;143736;984;47002;-76
2021/12/07 02:09:20;;;;;;;;;;;;;;;16.71;55.88;99759.66;143737;978;46013;-74
2021/12/07 02:11:51;;;;;;;;;;;;;;;16.70;56.34;99758.00;143735;979;47004;-74
2021/12/07 02:14:17;;;;;;;;;;;;;;;16.71;56.24;99764.25;143736;985;46935;-74
2021/12/07 02:17:03;;;;;;;;;;;;;;;16.70;56.28;99757.19;143735;984;47002;-75
2021/12/07 02:19:29;;;;;;;;;;;;;;;16.65;56.55;99737.13;143737;969;46013;-74
2021/12/07 02:21:56;;;;;;;;;;;;;;;16.62;56.72;99734.94;143734;980;47004;-76
2021/12/07 02:24:22;;;;;;;;;;;;;;;16.60;56.65;99734.37;143735;986;46936;-74
2021/12/07 02:26:49;;;;;;;;;;;;;;;16.57;57.79;99721.34;143736;983;47002;-75
2021/12/07 02:29:16;;;;;;;;;;;;;;;16.52;57.28;99724.03;143733;984;46012;-72
2021/12/07 02:31:42;;;;;;;;;;;;;;;16.54;57.31;99726.47;143733;980;47004;-75
2021/12/07 02:34:08;;;;;;;;;;;;;;;16.48;56.61;99717.50;143730;974;49011;-76
2021/12/07 02:36:34;;;;;;;;;;;;;;;16.43;57.39;99718.28;143737;984;46012;-73
2021/12/07 02:39:00;;;;;;;;;;;;;;;16.48;57.01;99722.94;143733;983;47012;-74
2021/12/07 02:41:26;;;;;;;;;;;;;;;16.53;57.40;99731.06;143734;979;47004;-74
2021/12/07 02:43:52;;;;;;;;;;;;;;;16.56;56.73;99743.31;143735;985;47010;-73
2021/12/07 02:46:18;;;;;;;;;;;;;;;16.57;56.64;99742.22;143736;984;47002;-75
2021/12/07 02:48:44;;;;;;;;;;;;;;;16.58;56.84;99749.28;143734;979;46013;-75
2021/12/07 02:51:09;;;;;;;;;;;;;;;16.56;56.47;99762.28;143733;980;47004;-75
2021/12/07 02:53:36;;;;;;;;;;;;;;;16.55;56.83;99758.75;143738;972;46011;-74
2021/12/07 02:56:03;;;;;;;;;;;;;;;16.56;55.90;99757.66;143736;983;47002;-75
2021/12/07 02:58:29;;;;;;;;;;;;;;;16.57;55.67;99764.72;143732;984;47012;-76
2021/12/07 03:01:02;;;;;;;;;;;;;;;16.58;56.49;99766.34;143733;980;47004;-76
2021/12/07 03:03:32;;;;;;;;;;;;;;;16.59;56.48;99757.13;143735;985;46011;-76
2021/12/07 03:27:59;;;;;;;;;;;;;;;16.46;57.77;99742.16;143738;984;47002;-75
2021/12/07 03:30:26;;;;;;;;;;;;;;;16.48;57.48;99741.91;143736;984;46012;-75
2021/12/07 03:32:52;;;;;;;;;;;;;;;16.45;57.54;99734.28;143735;979;47004;-74
2021/12/07 03:35:18;;;;;;;;;;;;;;;16.42;57.78;99732.91;143736;985;46010;-74
2021/12/07 03:37:44;;;;;;;;;;;;;;;16.41;58.32;99733.19;143736;984;47002;-74
2021/12/07 03:40:11;;;;;;;;;;;;;;;16.39;58.39;99730.75;143734;984;47012;-74
2021/12/07 03:42:37;;;;;;;;;;;;;;;16.36;58.52;99728.56;143735;980;47004;-75
2021/12/07 03:45:05;;;;;;;;;;;;;;;16.31;58.22;99723.91;143736;986;46010;-75
2021/12/07 03:47:31;;;;;;;;;;;;;;;16.31;58.67;99740.19;143737;984;47002;-75
2021/12/07 03:49:57;;;;;;;;;;;;;;;16.33;58.19;99731.78;143736;984;46012;-74
2021/12/07 03:52:23;;;;;;;;;;;;;;;16.39;58.11;99729.91;143731;980;47004;-75
2021/12/07 03:54:49;;;;;;;;;;;;;;;16.44;57.25;99735.38;143735;986;46011;-75
2021/12/07 03:57:15;;;;;;;;;;;;;;;16.47;57.74;99742.97;143733;984;47002;-75
2021/12/07 03:59:41;;;;;;;;;;;;;;;16.39;57.88;99733.44;143734;984;46012;-74
2021/12/07 04:02:07;;;;;;;;;;;;;;;16.37;57.68;99738.31;143731;979;47005;-76
2021/12/07 04:04:34;;;;;;;;;;;;;;;16.40;57.54;99734.25;143735;981;46010;-74
2021/12/07 04:07:00;;;;;;;;;;;;;;;16.39;56.73;99741.59;143736;984;47002;-74
2021/12/07 04:09:26;;;;;;;;;;;;;;;16.41;57.47;99746.72;143735;984;46013;-73
2021/12/07 04:11:52;;;;;;;;;;;;;;;16.41;56.66;99744.03;143734;979;47004;-74
2021/12/07 04:14:18;;;;;;;;;;;;;;;16.41;56.86;99735.88;143735;986;46010;-74
2021/12/07 04:16:44;;;;;;;;;;;;;;;16.33;57.21;99735.28;143736;970;47002;-74
2021/12/07 04:19:10;;;;;;;;;;;;;;;16.27;57.07;99732.81;143735;982;46012;-73
2021/12/07 04:21:35;;;;;;;;;;;;;;;16.28;56.52;99729.84;143736;980;47004;-74
2021/12/07 04:24:01;;;;;;;;;;;;;;;16.30;56.81;99741.25;143735;983;46010;-75
2021/12/07 04:26:27;;;;;;;;;;;;;;;16.29;56.50;99733.38;143736;984;47002;-72
2021/12/07 04:28:53;;;;;;;;;;;;;;;16.30;56.54;99735.00;143734;979;46021;-75
2021/12/07 04:31:20;;;;;;;;;;;;;;;16.26;56.20;99736.59;143733;980;47004;-74
2021/12/07 04:33:46;;;;;;;;;;;;;;;16.25;56.02;99730.38;143735;985;46010;-74
2021/12/07 04:36:12;;;;;;;;;;;;;;;16.23;56.29;99735.22;143736;984;47002;-74
2021/12/07 04:38:38;;;;;;;;;;;;;;;16.19;56.39;99734.94;143734;984;47012;-75
2021/12/07 04:41:05;;;;;;;;;;;;;;;16.19;57.04;99736.81;143731;979;47004;-75
2021/12/07 04:43:31;;;;;;;;;;;;;;;16.20;57.37;99735.75;143736;985;46012;-74
2021/12/07 04:59:51;;;;;;;;;;;;;;;16.01;57.87;99733.44;143735;984;47004;-74
2021/12/07 05:02:18;;;;;;;;;;;;;;;15.95;58.08;99739.09;143735;980;47004;-73
2021/12/07 05:04:44;;;;;;;;;;;;;;;15.95;58.45;99750.75;143735;985;46010;-74
2021/12/07 05:07:18;;;;;;;;;;;;;;;15.91;58.24;99746.91;143736;984;47002;-73
2021/12/07 05:15:54;;;;;;;;;;;;;;;15.99;57.89;99751.84;143733;985;47004;-76
2021/12/07 05:18:34;;;;;;;;;;;;;;;15.97;58.06;99758.59;143741;983;46012;-73
2021/12/07 05:38:17;;;;;;;;;;;;;;;15.95;58.00;99752.62;143735;985;46010;-73
2021/12/07 05:40:43;;;;;;;;;;;;;;;15.94;58.23;99751.00;143733;983;48002;-73
2021/12/07 05:43:09;;;;;;;;;;;;;;;15.91;58.33;99747.72;143735;984;46012;-74
2021/12/07 05:45:35;;;;;;;;;;;;;;;15.92;58.55;99743.13;143733;980;47004;-74
2021/12/07 05:48:02;;;;;;;;;;;;;;;15.91;58.40;99734.19;143737;980;46010;-73
2021/12/07 05:50:29;;;;;;;;;;;;;;;15.91;58.67;99728.75;143735;984;47002;-75
2021/12/07 05:52:56;;;;;;;;;;;;;;;15.85;58.48;99735.22;143735;984;46013;-75
2021/12/07 05:55:22;;;;;;;;;;;;;;;15.89;58.50;99725.50;143733;979;47004;-74
2021/12/07 05:57:48;;;;;;;;;;;;;;;15.94;58.53;99732.88;143734;981;46935;-75
2021/12/07 06:00:24;;;;;;;;;;;;;;;15.98;57.89;99725.84;143735;984;47002;-75
2021/12/07 06:02:50;;;;;;;;;;;;;;;15.98;58.01;99723.12;143737;980;46012;-77
2021/12/07 06:05:16;;;;;;;;;;;;;;;16.02;57.83;99728.88;143732;980;47004;-74
2021/12/07 06:07:42;;;;;;;;;;;;;;;16.08;57.93;99729.72;143735;986;46011;-75
2021/12/07 06:10:08;;;;;;;;;;;;;;;16.07;57.56;99734.28;143734;983;47002;-75
2021/12/07 06:12:34;;;;;;;;;;;;;;;16.08;57.29;99735.94;143737;971;46012;-74
2021/12/07 06:15:00;;;;;;;;;;;;;;;16.10;57.42;99732.97;143732;980;47004;-76
2021/12/07 06:17:26;;;;;;;;;;;;;;;16.13;57.27;99733.28;143736;985;46010;-75
2021/12/07 06:19:52;;;;;;;;;;;;;;;16.13;57.73;99733.28;143736;984;47002;-74
2021/12/07 06:22:18;;;;;;;;;;;;;;;16.16;57.44;99743.59;143735;984;46013;-74
2021/12/07 06:24:43;;;;;;;;;;;;;;;16.16;57.50;99746.31;143731;979;47004;-75
2021/12/07 06:27:09;;;;;;;;;;;;;;;16.21;57.65;99740.09;143736;985;46010;-74
2021/12/07 06:29:35;;;;;;;;;;;;;;;16.24;56.71;99745.00;143734;984;47002;-75
2021/12/07 06:32:01;;;;;;;;;;;;;;;16.26;56.64;99748.25;143738;966;46934;-75
2021/12/07 06:34:27;;;;;;;;;;;;;;;16.25;57.12;99746.62;143733;980;47004;-75
2021/12/07 06:36:53;;;;;;;;;;;;;;;16.24;56.74;99744.19;143736;986;46010;-75
2021/12/07 06:39:22;;;;;;;;;;;;;;;16.18;56.32;99743.31;143734;983;47002;-75
2021/12/07 06:41:48;;;;;;;;;;;;;;;16.19;56.62;99739.53;143734;979;46012;-72
2021/12/07 06:44:14;;;;;;;;;;;;;;;16.21;56.88;99738.22;143733;980;47004;-73
2021/12/07 06:46:40;;;;;;;;;;;;;;;16.21;56.84;99740.94;143734;985;46008;-73
2021/12/07 06:49:06;;;;;;;;;;;;;;;16.17;56.38;99738.97;143737;971;46029;-73
2021/12/07 06:51:32;;;;;;;;;;;;;;;16.17;56.70;99736.25;143734;982;47010;-73
2021/12/07 06:53:58;;;;;;;;;;;;;;;16.18;56.43;99736.03;143732;979;47002;-72
2021/12/07 06:56:24;;;;;;;;;;;;;;;16.15;57.16;99735.72;143735;974;46026;-72
2021/12/07 06:58:50;;;;;;;;;;;;;;;16.19;56.56;99729.53;143733;984;47000;-72
2021/12/07 07:01:16;;;;;;;;;;;;;;;16.21;56.93;99724.66;143734;984;47010;-73
2021/12/07 07:03:42;;;;;;;;;;;;;;;16.23;57.46;99732.53;143731;980;47002;-73
2021/12/07 07:06:08;;;;;;;;;;;;;;;16.27;57.42;99724.69;143736;985;46008;-72
2021/12/07 07:08:34;;;;;;;;;;;;;;;16.35;56.64;99726.91;143736;983;47000;-72
2021/12/07 07:11:00;;;;;;;;;;;;;;;16.36;56.47;99732.06;143732;984;47010;-72
2021/12/07 07:13:26;;;;;;;;;;;;;;;16.42;56.24;99726.69;143727;980;49002;-73
2021/12/07 07:15:52;;;;;;;;;;;;;;;16.47;56.19;99727.53;143736;985;46934;-72
2021/12/07 07:18:17;;;;;;;;;;;;;;;16.54;55.63;99731.91;143733;984;47000;-72
2021/12/07 07:20:43;;;;;;;;;;;;;;;16.57;55.43;99725.97;143734;984;46935;-72
2021/12/07 07:23:09;;;;;;;;;;;;;;;16.63;55.53;99723.00;143733;980;47002;-73
2021/12/07 07:25:35;;;;;;;;;;;;;;;16.66;54.92;99727.91;143735;985;46933;-72
2021/12/07 07:28:01;;;;;;;;;;;;;;;16.68;54.84;99717.59;143734;984;47000;-73
2021/12/07 07:30:27;;;;;;;;;;;;;;;16.74;55.23;99718.47;143738;984;46002;-73
2021/12/07 07:32:53;;;;;;;;;;;;;;;16.77;54.98;99723.31;143733;980;47002;-72
2021/12/07 07:35:20;;;;;;;;;;;;;;;16.82;54.05;99723.34;143735;987;46008;-72
2021/12/07 07:37:46;;;;;;;;;;;;;;;16.90;54.21;99722.03;143733;985;47000;-72
2021/12/07 07:40:15;;;;;;;;;;;;;;;16.95;53.79;99718.53;143734;984;46935;-72
2021/12/07 07:42:41;;;;;;;;;;;;;;;17.04;53.94;99718.84;143732;980;47002;-73
2021/12/07 07:45:07;;;;;;;;;;;;;;;17.10;53.46;99721.34;143737;986;46009;-72
2021/12/07 07:47:33;;;;;;;;;;;;;;;17.19;53.93;99724.34;143734;983;47000;-73
2021/12/07 07:49:59;;;;;;;;;;;;;;;17.22;53.96;99717.56;143734;984;46010;-73
2021/12/07 07:52:25;;;;;;;;;;;;;;;17.25;54.00;99714.31;143732;980;47002;-73
2021/12/07 07:54:51;;;;;;;;;;;;;;;17.30;53.37;99713.50;143740;985;46008;-73
2021/12/07 07:57:17;;;;;;;;;;;;;;;17.43;52.99;99711.09;143736;984;47000;-72
2021/12/07 07:59:43;;;;;;;;;;;;;;;17.58;53.09;99699.41;143736;970;46936;-73
2021/12/07 08:02:09;;;;;;;;;;;;;;;17.76;52.67;99708.09;143734;980;47002;-71
2021/12/07 08:04:35;;;;;;;;;;;;;;;17.95;51.71;99704.84;143733;986;47008;-71
2021/12/07 08:07:01;;;;;;;;;;;;;;;18.14;51.64;99697.00;143733;984;47000;-73
2021/12/07 08:09:27;;;;;;;;;;;;;;;18.27;51.73;99695.59;143734;983;47010;-73
2021/12/07 08:11:53;;;;;;;;;;;;;;;18.47;50.66;99695.53;143733;980;47002;-74
2021/12/07 08:14:18;;;;;;;;;;;;;;;18.60;50.17;99694.16;143734;986;46009;-73
2021/12/07 08:16:45;;;;;;;;;;;;;;;18.68;49.50;99703.63;143735;983;47000;-74
2021/12/07 08:19:11;;;;;;;;;;;;;;;18.73;50.17;99710.94;143734;974;47010;-74
2021/12/07 08:21:37;;;;;;;;;;;;;;;18.77;49.49;99701.16;143734;980;47002;-74
2021/12/07 08:24:03;;;;;;;;;;;;;;;18.89;49.58;99706.28;143736;985;46008;-74
2021/12/07 08:26:30;;;;;;;;;;;;;;;18.96;48.88;99700.56;143735;984;47000;-74
2021/12/07 08:28:57;;;;;;;;;;;;;;;18.98;48.17;99703.81;143732;984;47011;-74
2021/12/07 08:31:23;;;;;;;;;;;;;;;19.03;48.60;99704.59;143734;979;47002;-74
2021/12/07 08:33:49;;;;;;;;;;;;;;;19.08;48.03;99703.75;143735;986;46008;-75
2021/12/07 08:36:15;;;;;;;;;;;;;;;19.12;48.58;99707.53;143734;984;47000;-74
2021/12/07 08:38:42;;;;;;;;;;;;;;;19.18;48.32;99706.44;143732;979;47013;-74
2021/12/07 08:41:08;;;;;;;;;;;;;;;19.21;47.75;99714.03;143732;980;47004;-74
2021/12/07 08:43:35;;;;;;;;;;;;;;;19.22;47.51;99712.13;143734;986;46011;-77
2021/12/07 08:46:02;;;;;;;;;;;;;;;19.29;47.61;99707.19;143735;983;47002;-75
2021/12/07 08:48:28;;;;;;;;;;;;;;;19.38;47.13;99704.69;143735;983;46012;-74
2021/12/07 08:50:55;;;;;;;;;;;;;;;19.55;46.43;99698.81;143733;980;47004;-74
2021/12/07 08:53:22;;;;;;;;;;;;;;;19.70;45.84;99700.62;143735;985;46010;-74
2021/12/07 09:01:18;;;;;;;;;;;;;;;20.20;44.62;99684.12;143735;979;47004;-75
2021/12/07 09:03:44;;;;;;;;;;;;;;;20.48;44.27;99684.38;143734;981;46935;-74
2021/12/07 09:06:10;;;;;;;;;;;;;;;20.75;44.49;99681.06;143738;972;46002;-74
2021/12/07 09:08:36;;;;;;;;;;;;;;;22.08;41.71;99676.59;143734;983;46012;-74
2021/12/07 09:11:03;;;;;;;;;;;;;;;24.92;35.97;99679.25;143734;980;47004;-74
2021/12/07 09:13:29;;;;;;;;;;;;;;;26.96;32.14;99683.94;143738;986;46011;-74
2021/12/07 09:15:57;;;;;;;;;;;;;;;27.95;29.69;99685.19;143734;983;47002;-76
2021/12/07 09:18:23;;;;;;;;;;;;;;;28.37;29.01;99675.94;143734;984;46933;-75
2021/12/07 09:20:49;;;;;;;;;;;;;;;28.27;28.66;99671.66;143731;980;47004;-77
2021/12/07 09:23:15;;;;;;;;;;;;;;;28.31;28.91;99666.28;143735;985;46935;-74
2021/12/07 09:25:41;;;;;;;;;;;;;;;28.69;27.05;99665.09;143734;984;47002;-74
2021/12/07 09:28:10;;;;;;;;;;;;;;;29.03;26.91;99654.69;143734;984;46013;-76
2021/12/07 09:30:36;;;;;;;;;;;;;;;28.77;26.84;99659.81;143731;979;47004;-75
2021/12/07 09:33:02;;;;;;;;;;;;;;;28.71;26.17;99665.56;143737;986;46010;-75
2021/12/07 09:35:28;;;;;;;;;;;;;;;31.04;23.23;99651.03;143735;984;47002;-75
2021/12/07 09:37:54;;;;;;;;;;;;;;;34.08;20.27;99643.63;143734;983;47013;-74
2021/12/07 09:40:23;;;;;;;;;;;;;;;35.92;18.07;99640.88;143732;980;47012;-75
2021/12/07 09:42:50;;;;;;;;;;;;;;;37.49;16.95;99640.09;143737;986;46011;-75
2021/12/07 09:45:17;;;;;;;;;;;;;;;37.42;17.09;99634.56;143735;983;47002;-75
2021/12/07 09:47:43;;;;;;;;;;;;;;;35.77;17.86;99640.88;143734;984;46012;-75
2021/12/07 09:50:10;;;;;;;;;;;;;;;35.69;17.43;99633.69;143729;980;47004;-75
2021/12/07 09:52:36;;;;;;;;;;;;;;;35.50;17.42;99627.25;143735;985;46011;-76
2021/12/07 09:55:03;;;;;;;;;;;;;;;35.50;17.29;99630.06;143735;984;47002;-76
2021/12/07 09:57:29;;;;;;;;;;;;;;;35.78;17.18;99624.91;143736;970;46013;-75
2021/12/07 09:59:56;;;;;;;;;;;;;;;35.73;16.84;99616.94;143732;979;47005;-77
2021/12/07 10:02:22;;;;;;;;;;;;;;;35.18;17.55;99624.38;143735;972;47010;-75
2021/12/07 10:04:48;;;;;;;;;;;;;;;35.46;16.94;99626.47;143733;984;47002;-76
2021/12/07 10:07:14;;;;;;;;;;;;;;;33.66;19.59;99620.56;143736;981;46013;-76
2021/12/07 10:09:41;;;;;;;;;;;;;;;32.43;19.97;99633.75;143731;980;47004;-75
2021/12/07 10:12:07;;;;;;;;;;;;;;;31.89;21.63;99616.19;143736;985;46010;-76
2021/12/07 10:14:38;;;;;;;;;;;;;;;31.25;22.23;99614.63;143735;983;47002;-76
2021/12/07 10:17:04;;;;;;;;;;;;;;;31.29;22.50;99612.75;143733;984;47012;-76
2021/12/07 10:19:31;;;;;;;;;;;;;;;31.88;21.88;99609.03;143732;980;47004;-71
2021/12/07 10:22:02;;;;;;;;;;;;;;;31.20;22.12;99606.63;143735;985;46011;-74
2021/12/07 10:24:35;;;;;;;;;;;;;;;29.59;23.61;99596.97;143734;984;47002;-76
2021/12/07 10:27:01;;;;;;;;;;;;;;;28.82;25.66;99591.31;143734;972;46028;-75
2021/12/07 10:29:27;;;;;;;;;;;;;;;28.05;26.19;99595.59;143732;980;47004;-76
2021/12/07 10:31:55;;;;;;;;;;;;;;;28.05;26.45;99590.09;143740;985;46010;-76
2021/12/07 10:34:22;;;;;;;;;;;;;;;28.24;25.99;99586.78;143736;984;47002;-74
2021/12/07 10:36:49;;;;;;;;;;;;;;;28.75;25.69;99591.09;143735;984;46013;-74
2021/12/07 10:39:20;;;;;;;;;;;;;;;29.12;24.84;99576.34;143733;980;47004;-74
2021/12/07 10:41:53;;;;;;;;;;;;;;;28.94;25.09;99567.56;143737;978;46010;-75
2021/12/07 10:44:20;;;;;;;;;;;;;;;27.75;26.49;99572.94;143733;983;47002;-76
2021/12/07 10:46:52;;;;;;;;;;;;;;;28.66;26.04;99565.53;143736;983;46012;-75
2021/12/07 10:49:43;;;;;;;;;;;;;;;30.20;23.39;99564.47;143732;980;47004;-76
2021/12/07 10:52:14;;;;;;;;;;;;;;;32.62;20.92;99570.88;143734;985;46011;-75
2021/12/07 10:54:51;;;;;;;;;;;;;;;32.87;19.99;99551.75;143733;984;47002;-76
2021/12/07 10:57:38;;;;;;;;;;;;;;;33.82;19.08;99561.84;143733;984;47012;-80
2021/12/07 11:00:30;;;;;;;;;;;;;;;33.94;18.95;99555.19;143733;979;47004;-78
2021/12/07 11:02:57;;;;;;;;;;;;;;;33.95;19.10;99560.38;143738;982;46010;-74
2021/12/07 11:05:28;;;;;;;;;;;;;;;33.76;18.88;99555.81;143735;984;47002;-77
2021/12/07 11:07:54;;;;;;;;;;;;;;;32.89;19.43;99554.97;143735;983;46013;-74
2021/12/07 11:10:28;;;;;;;;;;;;;;;30.61;21.60;99555.91;143735;980;47004;-76
2021/12/07 11:13:19;;;;;;;;;;;;;;;29.23;23.02;99555.31;143735;984;46011;-75
2021/12/07 11:15:54;;;;;;;;;;;;;;;28.76;23.02;99547.69;143735;984;47002;-75
2021/12/07 11:18:37;;;;;;;;;;;;;;;28.54;23.90;99547.03;143737;978;46012;-76
2021/12/07 11:21:13;;;;;;;;;;;;;;;28.03;23.44;99545.47;143734;980;46016;-75
2021/12/07 11:23:42;;;;;;;;;;;;;;;27.68;24.11;99538.47;143735;986;46010;-75
2021/12/07 11:32:00;;;;;;;;;;;;;;;28.12;22.94;99542.63;143735;980;47004;-76
2021/12/07 11:34:28;;;;;;;;;;;;;;;28.66;22.78;99532.38;143733;986;47004;-75
2021/12/07 11:36:58;;;;;;;;;;;;;;;29.06;22.49;99523.25;143738;971;46029;-75
2021/12/07 11:39:36;;;;;;;;;;;;;;;29.19;22.03;99524.81;143733;984;47012;-73
2021/12/07 11:42:10;;;;;;;;;;;;;;;29.22;21.55;99522.50;143731;980;48004;-75
2021/12/07 11:44:47;;;;;;;;;;;;;;;28.94;21.45;99520.56;143735;985;46010;-76
2021/12/07 11:47:13;;;;;;;;;;;;;;;28.56;23.54;99526.22;143734;984;47002;-77
2021/12/07 11:49:39;;;;;;;;;;;;;;;27.83;23.45;99519.63;143735;984;46013;-76
2021/12/07 11:52:06;;;;;;;;;;;;;;;26.97;25.58;99526.56;143733;979;47004;-76
2021/12/07 11:54:34;;;;;;;;;;;;;;;26.32;25.88;99522.19;143737;982;46010;-76
2021/12/07 11:57:01;;;;;;;;;;;;;;;25.46;27.01;99524.22;143736;984;47002;-78
2021/12/07 11:59:28;;;;;;;;;;;;;;;24.76;28.42;99523.19;143735;983;46013;-77
2021/12/07 12:01:54;;;;;;;;;;;;;;;24.27;29.75;99511.50;143730;980;47004;-78
2021/12/07 12:04:21;;;;;;;;;;;;;;;23.79;30.15;99505.69;143737;986;46010;-78
2021/12/07 12:06:48;;;;;;;;;;;;;;;23.33;31.28;99499.53;143734;980;47002;-75
2021/12/07 12:09:15;;;;;;;;;;;;;;;22.95;31.96;99508.13;143734;984;46012;-76
2021/12/07 12:11:54;;;;;;;;;;;;;;;22.58;32.24;99510.94;143732;980;47004;-77
2021/12/07 12:14:26;;;;;;;;;;;;;;;22.16;34.32;99508.28;143737;973;46010;-76
2021/12/07 12:16:58;;;;;;;;;;;;;;;21.81;34.51;99507.88;143735;984;47002;-75
2021/12/07 12:19:59;;;;;;;;;;;;;;;21.64;34.90;99512.03;143738;978;46013;-77
2021/12/07 12:22:41;;;;;;;;;;;;;;;21.32;35.68;99513.69;143733;979;47004;-77
2021/12/07 12:25:08;;;;;;;;;;;;;;;21.03;36.42;99508.47;143736;986;46010;-76
2021/12/07 12:27:34;;;;;;;;;;;;;;;20.84;37.35;99506.56;143733;984;47002;-78
2021/12/07 12:30:04;;;;;;;;;;;;;;;20.73;37.36;99519.53;143736;983;46012;-76
2021/12/07 12:32:35;;;;;;;;;;;;;;;20.51;36.55;99514.69;143736;980;46012;-76
2021/12/07 12:35:02;;;;;;;;;;;;;;;20.39;36.86;99522.47;143734;979;47012;-77
2021/12/07 12:37:31;;;;;;;;;;;;;;;20.32;37.09;99516.56;143737;973;46027;-76
2021/12/07 12:40:19;;;;;;;;;;;;;;;20.21;37.73;99524.88;143735;970;46030;-77
2021/12/07 12:42:46;;;;;;;;;;;;;;;20.09;38.79;99527.22;143732;980;47004;-75
2021/12/07 12:45:20;;;;;;;;;;;;;;;19.97;39.21;99520.28;143733;985;46010;-75
2021/12/07 12:47:53;;;;;;;;;;;;;;;19.89;39.15;99526.38;143735;981;47002;-73
2021/12/07 12:50:22;;;;;;;;;;;;;;;19.83;39.29;99522.84;143735;980;46013;-73
2021/12/07 12:52:50;;;;;;;;;;;;;;;19.79;40.09;99527.25;143733;979;47004;-76
2021/12/07 12:55:27;;;;;;;;;;;;;;;19.75;40.60;99534.41;143735;980;46010;-74
2021/12/07 12:57:53;;;;;;;;;;;;;;;19.70;40.49;99520.84;143735;984;47002;-74
2021/12/07 13:00:19;;;;;;;;;;;;;;;19.67;41.25;99519.50;143733;984;47012;-75
2021/12/07 13:02:54;;;;;;;;;;;;;;;19.65;41.59;99527.16;143733;980;46937;-75
2021/12/07 13:05:33;;;;;;;;;;;;;;;19.61;42.33;99528.81;143735;985;46010;-75
2021/12/07 13:08:15;;;;;;;;;;;;;;;19.61;41.79;99526.09;143735;984;47002;-74
2021/12/07 13:11:00;;;;;;;;;;;;;;;19.58;42.37;99526.69;143734;984;46012;-74
2021/12/07 13:13:31;;;;;;;;;;;;;;;19.56;42.18;99520.69;143735;979;46013;-73
2021/12/07 13:15:57;;;;;;;;;;;;;;;19.51;41.77;99515.28;143735;986;46010;-72
2021/12/07 13:18:27;;;;;;;;;;;;;;;19.46;41.46;99518.88;143734;984;47002;-71
2021/12/07 13:20:53;;;;;;;;;;;;;;;19.43;41.57;99519.47;143735;970;46934;-71
2021/12/07 13:23:19;;;;;;;;;;;;;;;19.42;41.51;99523.28;143733;980;47004;-74
2021/12/07 13:25:52;;;;;;;;;;;;;;;19.43;41.05;99519.47;143735;986;46935;-74
2021/12/07 13:28:43;;;;;;;;;;;;;;;19.41;40.98;99523.59;143736;983;47002;-74
2021/12/07 13:31:18;;;;;;;;;;;;;;;19.38;41.41;99528.50;143736;984;46012;-74
2021/12/07 13:33:54;;;;;;;;;;;;;;;19.34;41.90;99532.88;143734;979;47004;-74
2021/12/07 13:36:43;;;;;;;;;;;;;;;19.29;42.12;99534.84;143736;985;46936;-73
2021/12/07 13:39:34;;;;;;;;;;;;;;;19.27;41.69;99537.88;143736;984;47012;-73
2021/12/07 13:42:12;;;;;;;;;;;;;;;19.25;42.22;99537.34;143737;980;46013;-73
2021/12/07 13:44:39;;;;;;;;;;;;;;;19.23;42.59;99529.47;143734;970;47004;-74
2021/12/07 13:47:16;;;;;;;;;;;;;;;19.22;41.39;99533.28;143734;986;46935;-76
2021/12/07 13:49:45;;;;;;;;;;;;;;;19.22;41.39;99535.19;143735;984;47002;-74
2021/12/07 13:52:13;;;;;;;;;;;;;;;19.23;41.05;99534.09;143733;984;47012;-74
2021/12/07 13:54:41;;;;;;;;;;;;;;;19.22;41.14;99533.28;143734;980;47004;-72
2021/12/07 13:57:11;;;;;;;;;;;;;;;19.21;41.14;99530.84;143733;986;47002;-77
2021/12/07 13:59:37;;;;;;;;;;;;;;;19.19;41.68;99535.75;143736;984;47002;-72
2021/12/07 14:02:03;;;;;;;;;;;;;;;19.15;41.76;99546.41;143737;984;46012;-73
2021/12/07 14:04:29;;;;;;;;;;;;;;;19.15;41.30;99548.31;143734;980;47004;-74
2021/12/07 14:06:56;;;;;;;;;;;;;;;19.10;41.85;99554.59;143733;984;47002;-74
2021/12/07 14:09:22;;;;;;;;;;;;;;;19.04;42.00;99558.47;143735;984;47002;-72
2021/12/07 14:11:57;;;;;;;;;;;;;;;18.97;42.88;99558.81;143734;984;46013;-72
2021/12/07 14:14:24;;;;;;;;;;;;;;;18.92;43.25;99566.97;143734;979;47004;-73
2021/12/07 14:16:54;;;;;;;;;;;;;;;18.88;43.41;99576.78;143734;985;46010;-74
2021/12/07 14:19:20;;;;;;;;;;;;;;;18.81;42.93;99577.09;143737;984;46011;-73
2021/12/07 14:21:46;;;;;;;;;;;;;;;18.77;42.91;99576.84;143733;983;46934;-72
2021/12/07 14:24:18;;;;;;;;;;;;;;;18.73;43.22;99574.94;143736;980;47004;-71
2021/12/07 14:26:45;;;;;;;;;;;;;;;18.70;42.78;99589.94;143736;986;46011;-72
2021/12/07 14:29:12;;;;;;;;;;;;;;;18.66;44.20;99588.87;143733;983;47002;-73
2021/12/07 14:31:40;;;;;;;;;;;;;;;18.57;45.19;99591.34;143734;984;46012;-71
2021/12/07 14:34:07;;;;;;;;;;;;;;;18.49;45.12;99597.41;143729;980;47004;-72
2021/12/07 14:36:44;;;;;;;;;;;;;;;18.40;46.08;99594.44;143736;981;46010;-72
2021/12/07 14:39:22;;;;;;;;;;;;;;;18.35;45.32;99589.03;143736;984;47002;-73
2021/12/07 14:41:50;;;;;;;;;;;;;;;18.27;46.38;99608.62;143735;984;46013;-71
2021/12/07 14:44:21;;;;;;;;;;;;;;;18.17;47.57;99613.00;143727;979;49004;-70